Time;durP1;ratioP1;P1;durP2;ratioP2;P2;SDS_P1;SDS_P2;PMS_P1;PMS_P2;Temp;Humidity;BMP_temperature;BMP_pressure;BME280_temperature;BME280_humidity;BME280_pressure;Samples;Min_cycle;Max_cycle;Signal;HPM_P1;HPM_P2
2023/05/02 00:01:03;;;;;;;;;;;15.20;60.90;;;;;;4993722;28;88553;-41
2023/05/02 00:03:30;;;;;;;;;;;15.20;60.90;;;;;;4991570;28;89382;-41
2023/05/02 00:05:55;;;;;;;;;;;15.20;60.90;;;;;;4996008;28;87140;-40
2023/05/02 00:08:21;;;;;;;;;;;15.10;60.90;;;;;;4992766;28;88241;-41
2023/05/02 00:10:46;;;;;;;;;;;15.10;60.90;;;;;;4991720;28;87134;-39
2023/05/02 00:13:12;;;;;;;;;;;15.20;60.90;;;;;;4993966;28;87377;-41
2023/05/02 00:15:37;;;;;;;;;;;15.20;60.80;;;;;;4989815;28;88102;-40
2023/05/02 00:18:03;;;;;;;;;;;15.10;61.00;;;;;;4994435;28;86278;-41
2023/05/02 00:20:28;;;;;;;;;;;15.10;61.00;;;;;;4992092;28;87022;-41
2023/05/02 00:22:55;;;;;;;;;;;15.10;61.10;;;;;;4992501;28;88048;-40
2023/05/02 00:25:20;;;;;;;;;;;15.10;61.00;;;;;;4995229;28;88553;-40
2023/05/02 00:27:46;;;;;;;;;;;15.10;60.90;;;;;;4991187;28;87281;-39
2023/05/02 00:30:12;;;;;;;;;;;15.00;60.90;;;;;;4994033;28;87350;-40
2023/05/02 00:32:37;;;;;;;;;;;15.00;61.00;;;;;;4990875;28;87637;-41
2023/05/02 00:35:03;;;;;;;;;;;15.00;60.90;;;;;;4992684;28;89159;-41
2023/05/02 00:37:28;;;;;;;;;;;15.00;60.80;;;;;;4992128;28;87135;-39
2023/05/02 00:39:54;;;;;;;;;;;15.00;60.90;;;;;;4992157;28;87559;-39
2023/05/02 00:42:20;;;;;;;;;;;15.00;61.00;;;;;;4993392;28;87701;-41
2023/05/02 00:44:45;;;;;;;;;;;15.00;60.80;;;;;;4989811;28;87202;-41
2023/05/02 00:47:11;;;;;;;;;;;15.00;60.80;;;;;;4993269;28;87387;-40
2023/05/02 00:49:37;;;;;;;;;;;15.00;60.60;;;;;;4992669;28;88745;-39
2023/05/02 00:52:02;;;;;;;;;;;15.00;60.60;;;;;;4991592;28;88321;-40
2023/05/02 00:54:29;;;;;;;;;;;15.10;60.60;;;;;;4991833;28;88020;-40
2023/05/02 00:56:55;;;;;;;;;;;14.90;60.60;;;;;;4993090;28;87121;-40
2023/05/02 00:59:21;;;;;;;;;;;14.90;60.80;;;;;;4990501;28;87710;-40
2023/05/02 01:02:05;;;;;;;;;;;14.90;60.90;;;;;;4993511;28;87195;-39
2023/05/02 01:04:37;;;;;;;;;;;14.90;60.80;;;;;;4993645;28;88237;-41
2023/05/02 01:07:18;;;;;;;;;;;14.90;60.80;;;;;;4991821;28;87365;-40
2023/05/02 01:09:46;;;;;;;;;;;14.80;60.80;;;;;;4992822;28;88210;-40
2023/05/02 01:12:24;;;;;;;;;;;14.80;60.70;;;;;;4992938;28;87318;-41
2023/05/02 01:14:54;;;;;;;;;;;14.90;61.40;;;;;;4991265;28;90695;-39
2023/05/02 01:17:22;;;;;;;;;;;14.80;60.70;;;;;;4990494;28;87071;-41
2023/05/02 01:19:51;;;;;;;;;;;14.80;60.80;;;;;;4992415;28;86955;-41
2023/05/02 01:22:18;;;;;;;;;;;14.80;60.90;;;;;;4991832;28;87937;-41
2023/05/02 01:24:59;;;;;;;;;;;14.80;60.70;;;;;;4990335;28;86934;-40
2023/05/02 01:28:00;;;;;;;;;;;14.70;60.90;;;;;;4992064;28;88972;-41
2023/05/02 01:30:28;;;;;;;;;;;14.70;60.80;;;;;;4978613;28;89671;-40
2023/05/02 01:32:55;;;;;;;;;;;14.70;60.80;;;;;;4989387;28;86546;-39
2023/05/02 01:35:21;;;;;;;;;;;14.70;60.70;;;;;;4991969;28;88004;-41
2023/05/02 01:37:47;;;;;;;;;;;14.70;61.00;;;;;;4992047;28;87103;-41
2023/05/02 01:40:14;;;;;;;;;;;14.70;60.90;;;;;;4989986;28;88088;-41
2023/05/02 01:42:42;;;;;;;;;;;14.60;60.90;;;;;;4993110;28;87317;-41
2023/05/02 01:45:09;;;;;;;;;;;14.70;60.90;;;;;;4990195;28;87199;-41
2023/05/02 01:47:35;;;;;;;;;;;14.60;60.80;;;;;;4991742;28;87367;-40
2023/05/02 01:50:02;;;;;;;;;;;14.60;60.70;;;;;;4991783;28;87927;-41
2023/05/02 01:52:28;;;;;;;;;;;14.60;60.80;;;;;;4990287;28;87166;-41
2023/05/02 01:54:54;;;;;;;;;;;14.60;60.90;;;;;;4995554;28;88980;-40
2023/05/02 01:57:20;;;;;;;;;;;14.60;60.90;;;;;;4993629;28;86642;-40
2023/05/02 01:59:46;;;;;;;;;;;14.60;60.90;;;;;;4995473;28;87081;-40
2023/05/02 02:02:11;;;;;;;;;;;14.50;60.80;;;;;;4994403;28;88241;-40
2023/05/02 02:04:38;;;;;;;;;;;14.60;60.80;;;;;;4993799;28;88447;-40
2023/05/02 02:07:07;;;;;;;;;;;14.50;60.80;;;;;;4994542;28;91780;-39
2023/05/02 02:09:33;;;;;;;;;;;14.50;60.90;;;;;;4992643;28;89466;-41
2023/05/02 02:12:04;;;;;;;;;;;14.50;60.90;;;;;;4995588;28;87109;-41
2023/05/02 02:14:33;;;;;;;;;;;14.50;60.90;;;;;;4994633;28;88913;-39
2023/05/02 02:17:00;;;;;;;;;;;14.50;60.90;;;;;;4995768;28;88418;-41
2023/05/02 02:19:27;;;;;;;;;;;14.40;61.10;;;;;;4992962;28;87285;-41
2023/05/02 02:21:54;;;;;;;;;;;14.40;60.90;;;;;;4995390;28;87370;-41
2023/05/02 02:24:20;;;;;;;;;;;14.40;60.90;;;;;;4994266;28;87135;-40
2023/05/02 02:26:46;;;;;;;;;;;14.40;60.90;;;;;;4993625;28;87319;-40
2023/05/02 02:29:11;;;;;;;;;;;14.40;60.90;;;;;;4994714;28;89002;-39
2023/05/02 02:31:38;;;;;;;;;;;14.40;60.80;;;;;;4992806;28;87223;-40
2023/05/02 02:34:04;;;;;;;;;;;14.40;60.90;;;;;;4995096;28;88788;-39
2023/05/02 02:36:33;;;;;;;;;;;14.40;61.00;;;;;;4996611;28;87718;-41
2023/05/02 02:39:21;;;;;;;;;;;14.40;60.90;;;;;;4993703;28;87549;-41
2023/05/02 02:41:51;;;;;;;;;;;14.30;60.90;;;;;;4991959;28;88037;-41
2023/05/02 02:44:26;;;;;;;;;;;14.30;60.90;;;;;;4992379;28;87190;-40
2023/05/02 02:46:59;;;;;;;;;;;14.30;60.80;;;;;;4994157;28;87471;-41
2023/05/02 02:49:37;;;;;;;;;;;14.30;60.90;;;;;;4992317;28;88467;-39
2023/05/02 02:52:02;;;;;;;;;;;14.30;60.70;;;;;;4993755;28;87325;-39
2023/05/02 02:54:32;;;;;;;;;;;14.30;60.70;;;;;;4993188;28;88120;-39
2023/05/02 02:57:03;;;;;;;;;;;14.30;60.70;;;;;;4994805;28;88198;-40
2023/05/02 02:59:31;;;;;;;;;;;14.20;60.60;;;;;;4995742;28;87140;-41
2023/05/02 03:02:03;;;;;;;;;;;14.20;60.60;;;;;;4993388;28;88188;-41
2023/05/02 03:04:30;;;;;;;;;;;14.20;60.70;;;;;;4994740;28;87083;-40
2023/05/02 03:06:56;;;;;;;;;;;14.20;60.50;;;;;;4991334;28;87465;-41
2023/05/02 03:09:21;;;;;;;;;;;14.20;60.60;;;;;;4992832;28;90123;-41
2023/05/02 03:11:46;;;;;;;;;;;14.20;60.60;;;;;;4993577;28;86436;-41
2023/05/02 03:14:12;;;;;;;;;;;14.10;60.50;;;;;;4993636;28;87033;-40
2023/05/02 03:16:38;;;;;;;;;;;14.10;60.60;;;;;;4993816;28;87937;-41
2023/05/02 03:19:04;;;;;;;;;;;14.10;60.50;;;;;;4991516;28;88041;-40
2023/05/02 03:21:30;;;;;;;;;;;14.10;60.60;;;;;;4997519;28;88844;-41
2023/05/02 03:23:57;;;;;;;;;;;14.10;60.60;;;;;;4992401;28;87038;-41
2023/05/02 03:26:22;;;;;;;;;;;14.10;60.50;;;;;;4993836;28;87488;-40
2023/05/02 03:28:49;;;;;;;;;;;14.10;60.70;;;;;;4993465;28;87925;-39
2023/05/02 03:31:15;;;;;;;;;;;14.00;60.50;;;;;;4992281;28;87113;-40
2023/05/02 03:33:40;;;;;;;;;;;14.00;60.60;;;;;;4994629;28;89073;-41
2023/05/02 03:36:06;;;;;;;;;;;14.00;60.60;;;;;;4991600;28;87398;-41
2023/05/02 03:38:31;;;;;;;;;;;14.00;60.70;;;;;;4994319;28;87186;-41
2023/05/02 03:40:57;;;;;;;;;;;14.00;60.60;;;;;;4992931;28;87578;-41
2023/05/02 03:43:23;;;;;;;;;;;13.90;60.60;;;;;;4995115;28;88792;-39
2023/05/02 03:45:48;;;;;;;;;;;13.90;60.70;;;;;;4994014;28;88425;-40
2023/05/02 03:48:14;;;;;;;;;;;13.90;60.70;;;;;;4991571;28;87969;-40
2023/05/02 03:50:39;;;;;;;;;;;13.90;60.70;;;;;;4994658;28;87295;-41
2023/05/02 03:53:05;;;;;;;;;;;13.90;60.70;;;;;;4990148;28;90618;-40
2023/05/02 03:55:31;;;;;;;;;;;13.80;60.70;;;;;;4993394;28;87999;-40
2023/05/02 03:57:56;;;;;;;;;;;13.80;60.60;;;;;;4992907;28;87018;-39
2023/05/02 04:00:22;;;;;;;;;;;13.90;60.60;;;;;;4993106;28;87506;-41
2023/05/02 04:02:47;;;;;;;;;;;13.90;60.70;;;;;;4993557;28;88716;-40
2023/05/02 04:05:13;;;;;;;;;;;13.80;60.70;;;;;;4993522;28;87217;-40
2023/05/02 04:07:39;;;;;;;;;;;13.80;60.70;;;;;;4993383;28;88698;-41
2023/05/02 04:10:05;;;;;;;;;;;13.80;60.70;;;;;;4992137;28;87168;-39
2023/05/02 04:12:30;;;;;;;;;;;13.80;60.70;;;;;;4992935;28;87486;-41
2023/05/02 04:14:55;;;;;;;;;;;13.80;60.80;;;;;;4992314;28;88112;-39
2023/05/02 04:17:21;;;;;;;;;;;13.80;60.80;;;;;;4991704;28;87072;-41
2023/05/02 04:19:46;;;;;;;;;;;13.80;60.80;;;;;;4993948;28;87658;-41
2023/05/02 04:22:12;;;;;;;;;;;13.80;60.80;;;;;;4990632;28;88680;-40
2023/05/02 04:24:37;;;;;;;;;;;13.80;60.70;;;;;;4994404;28;86383;-40
2023/05/02 04:27:03;;;;;;;;;;;13.70;60.80;;;;;;4994443;28;87193;-40
2023/05/02 04:29:28;;;;;;;;;;;13.70;60.80;;;;;;4992471;28;87176;-40
2023/05/02 04:31:54;;;;;;;;;;;13.80;60.80;;;;;;4992673;28;87983;-41
2023/05/02 04:34:20;;;;;;;;;;;13.70;60.80;;;;;;4990762;28;87698;-41
2023/05/02 04:36:46;;;;;;;;;;;13.70;60.80;;;;;;4993830;28;87196;-40
2023/05/02 04:39:11;;;;;;;;;;;13.70;60.80;;;;;;4991352;28;88007;-41
2023/05/02 04:41:37;;;;;;;;;;;13.70;60.80;;;;;;4992969;28;87287;-40
2023/05/02 04:44:02;;;;;;;;;;;13.70;60.80;;;;;;4992120;28;87067;-40
2023/05/02 04:46:28;;;;;;;;;;;13.60;60.80;;;;;;4994530;28;87212;-40
2023/05/02 04:48:53;;;;;;;;;;;13.60;60.80;;;;;;4993808;28;86299;-41
2023/05/02 04:51:19;;;;;;;;;;;13.70;60.90;;;;;;4990418;28;88149;-41
2023/05/02 04:53:45;;;;;;;;;;;13.70;60.90;;;;;;4990374;28;87931;-39
2023/05/02 04:56:10;;;;;;;;;;;13.60;60.80;;;;;;4992401;28;88088;-40
2023/05/02 04:58:36;;;;;;;;;;;13.60;60.80;;;;;;4991650;28;90247;-39
2023/05/02 05:01:01;;;;;;;;;;;13.70;60.90;;;;;;4991497;28;88175;-40
2023/05/02 05:03:31;;;;;;;;;;;13.60;60.80;;;;;;4993024;28;87158;-41
2023/05/02 05:05:57;;;;;;;;;;;13.60;61.00;;;;;;4989704;28;88808;-40
2023/05/02 05:08:22;;;;;;;;;;;13.60;61.00;;;;;;4995872;28;88203;-39
2023/05/02 05:10:49;;;;;;;;;;;13.60;61.00;;;;;;4991504;28;87443;-41
2023/05/02 05:13:14;;;;;;;;;;;13.60;61.00;;;;;;4991770;28;88381;-39
2023/05/02 05:15:40;;;;;;;;;;;13.60;61.00;;;;;;4991939;28;87597;-41
2023/05/02 05:18:05;;;;;;;;;;;13.60;61.10;;;;;;4990895;28;87587;-40
2023/05/02 05:20:32;;;;;;;;;;;13.50;61.10;;;;;;4992529;28;89002;-40
2023/05/02 05:22:58;;;;;;;;;;;13.50;61.20;;;;;;4990611;28;87898;-41
2023/05/02 05:25:25;;;;;;;;;;;13.50;61.20;;;;;;4992623;28;87478;-41
2023/05/02 05:27:51;;;;;;;;;;;13.60;61.30;;;;;;4991775;28;87930;-40
2023/05/02 05:30:16;;;;;;;;;;;13.50;61.20;;;;;;4994261;28;87192;-39
2023/05/02 05:32:42;;;;;;;;;;;13.50;61.30;;;;;;4996405;28;88027;-40
2023/05/02 05:35:08;;;;;;;;;;;13.50;61.30;;;;;;4993187;28;87189;-40
2023/05/02 05:37:36;;;;;;;;;;;13.60;61.30;;;;;;4997042;28;87221;-41
2023/05/02 05:40:01;;;;;;;;;;;13.50;61.30;;;;;;4994137;28;88120;-40
2023/05/02 05:42:27;;;;;;;;;;;13.50;61.30;;;;;;4994350;28;87121;-39
2023/05/02 05:44:52;;;;;;;;;;;13.50;61.50;;;;;;4995344;28;88082;-40
2023/05/02 05:47:21;;;;;;;;;;;13.50;61.40;;;;;;4993185;28;88145;-39
2023/05/02 05:49:46;;;;;;;;;;;13.50;61.60;;;;;;4993259;28;87247;-39
2023/05/02 05:52:12;;;;;;;;;;;13.50;61.40;;;;;;4998388;28;87074;-40
2023/05/02 05:54:37;;;;;;;;;;;13.50;61.40;;;;;;4994916;28;87261;-40
2023/05/02 05:57:03;;;;;;;;;;;13.50;61.30;;;;;;4994283;28;87407;-40
2023/05/02 05:59:29;;;;;;;;;;;13.50;61.40;;;;;;4995289;28;89188;-41
2023/05/02 06:01:54;;;;;;;;;;;13.50;61.50;;;;;;4993391;28;86361;-40
2023/05/02 06:04:20;;;;;;;;;;;13.50;61.50;;;;;;4996240;28;88272;-40
2023/05/02 06:06:45;;;;;;;;;;;13.50;61.50;;;;;;4993459;28;87989;-39
2023/05/02 06:09:11;;;;;;;;;;;13.60;61.60;;;;;;4994359;28;88061;-41
2023/05/02 06:11:37;;;;;;;;;;;13.60;61.60;;;;;;4995002;28;88522;-41
2023/05/02 06:14:02;;;;;;;;;;;13.50;61.60;;;;;;4996141;28;89564;-39
2023/05/02 06:16:28;;;;;;;;;;;13.50;61.70;;;;;;4996016;28;87041;-40
2023/05/02 06:18:53;;;;;;;;;;;13.50;61.70;;;;;;4992494;28;88101;-39
2023/05/02 06:21:19;;;;;;;;;;;13.60;62.40;;;;;;4995484;28;87200;-41
2023/05/02 06:23:44;;;;;;;;;;;13.50;61.80;;;;;;4994014;28;87419;-41
2023/05/02 06:26:10;;;;;;;;;;;13.60;61.90;;;;;;4994344;28;88730;-41
2023/05/02 06:28:35;;;;;;;;;;;13.50;61.80;;;;;;4995191;28;87231;-41
2023/05/02 06:31:04;;;;;;;;;;;13.50;61.80;;;;;;4992881;28;87884;-39
2023/05/02 06:33:31;;;;;;;;;;;13.60;61.90;;;;;;4991201;28;90452;-41
2023/05/02 06:35:56;;;;;;;;;;;13.60;61.90;;;;;;4997979;28;86988;-41
2023/05/02 06:38:22;;;;;;;;;;;13.50;62.00;;;;;;4993778;28;88049;-41
2023/05/02 06:40:48;;;;;;;;;;;13.60;62.10;;;;;;4994137;28;87076;-41
2023/05/02 06:43:14;;;;;;;;;;;13.50;62.20;;;;;;4993988;28;87388;-41
2023/05/02 06:45:39;;;;;;;;;;;13.60;62.10;;;;;;4992108;28;87995;-40
2023/05/02 06:48:05;;;;;;;;;;;13.60;62.10;;;;;;4992374;28;87099;-39
2023/05/02 06:50:31;;;;;;;;;;;13.60;62.10;;;;;;4995426;28;87599;-40
2023/05/02 06:52:57;;;;;;;;;;;13.60;62.30;;;;;;4993301;28;87982;-41
2023/05/02 06:55:22;;;;;;;;;;;13.60;62.20;;;;;;4996524;28;87153;-39
2023/05/02 06:57:48;;;;;;;;;;;13.60;62.20;;;;;;4993977;28;88867;-39
2023/05/02 07:00:15;;;;;;;;;;;13.50;62.10;;;;;;4992299;28;87268;-40
2023/05/02 07:02:41;;;;;;;;;;;13.60;62.30;;;;;;4992168;28;88862;-41
2023/05/02 07:05:07;;;;;;;;;;;13.60;62.30;;;;;;4994145;28;89504;-41
2023/05/02 07:07:32;;;;;;;;;;;13.60;62.30;;;;;;4993531;28;87405;-41
2023/05/02 07:09:58;;;;;;;;;;;13.60;62.30;;;;;;4993522;28;87472;-39
2023/05/02 07:12:24;;;;;;;;;;;13.60;62.30;;;;;;4994012;28;88099;-40
2023/05/02 07:14:50;;;;;;;;;;;13.60;62.20;;;;;;4991923;28;86423;-41
2023/05/02 07:17:15;;;;;;;;;;;13.60;62.30;;;;;;4994866;28;87335;-39
2023/05/02 07:19:41;;;;;;;;;;;13.60;62.30;;;;;;4994367;28;87121;-40
2023/05/02 07:22:07;;;;;;;;;;;13.60;62.30;;;;;;4992605;28;87898;-41
2023/05/02 07:24:32;;;;;;;;;;;13.60;62.40;;;;;;4992782;28;88038;-40
2023/05/02 07:26:57;;;;;;;;;;;13.60;62.30;;;;;;4994330;28;87198;-39
2023/05/02 07:29:23;;;;;;;;;;;13.60;62.40;;;;;;4992020;28;87552;-41
2023/05/02 07:31:49;;;;;;;;;;;13.60;62.40;;;;;;4994527;28;89732;-39
2023/05/02 07:34:15;;;;;;;;;;;13.60;62.50;;;;;;4992107;28;87134;-41
2023/05/02 07:36:40;;;;;;;;;;;13.70;62.40;;;;;;4993879;28;87807;-40
2023/05/02 07:39:05;;;;;;;;;;;13.70;62.40;;;;;;4996332;28;87264;-40
2023/05/02 07:41:31;;;;;;;;;;;13.60;62.40;;;;;;4992849;28;87081;-41
2023/05/02 07:43:56;;;;;;;;;;;13.70;62.50;;;;;;4993881;28;88831;-41
2023/05/02 07:46:22;;;;;;;;;;;13.70;62.40;;;;;;4991115;28;88129;-40
2023/05/02 07:48:48;;;;;;;;;;;13.70;62.50;;;;;;4994458;28;88402;-41
2023/05/02 07:51:14;;;;;;;;;;;13.60;62.50;;;;;;4991982;28;88646;-39
2023/05/02 07:53:39;;;;;;;;;;;13.70;62.60;;;;;;4992355;28;87100;-40
2023/05/02 07:56:05;;;;;;;;;;;13.70;62.60;;;;;;4993524;28;87049;-40
2023/05/02 07:58:31;;;;;;;;;;;13.70;62.50;;;;;;4991682;28;88212;-41
2023/05/02 08:00:56;;;;;;;;;;;13.70;62.40;;;;;;4997448;28;87307;-41
2023/05/02 08:03:23;;;;;;;;;;;13.70;62.40;;;;;;4991735;28;87338;-41
2023/05/02 08:05:48;;;;;;;;;;;13.70;62.40;;;;;;4993325;28;87428;-41
2023/05/02 08:08:13;;;;;;;;;;;13.70;62.40;;;;;;4992629;28;87651;-39
2023/05/02 08:10:39;;;;;;;;;;;13.80;62.40;;;;;;4991812;28;88845;-41
2023/05/02 08:13:05;;;;;;;;;;;13.80;62.40;;;;;;4993617;28;87168;-39
2023/05/02 08:15:30;;;;;;;;;;;13.80;62.50;;;;;;4991021;28;87583;-39
2023/05/02 08:17:56;;;;;;;;;;;13.80;62.60;;;;;;4994103;28;88061;-39
2023/05/02 08:20:21;;;;;;;;;;;13.80;62.60;;;;;;4991406;28;87593;-40
2023/05/02 08:22:47;;;;;;;;;;;13.80;62.60;;;;;;4995684;28;87370;-39
2023/05/02 08:25:12;;;;;;;;;;;13.80;62.50;;;;;;4992636;28;87038;-40
2023/05/02 08:27:38;;;;;;;;;;;13.80;62.70;;;;;;4992332;28;87369;-41
2023/05/02 08:30:04;;;;;;;;;;;13.80;62.70;;;;;;4993468;28;88194;-41
2023/05/02 08:32:30;;;;;;;;;;;13.80;62.70;;;;;;4990646;28;87214;-40
2023/05/02 08:34:56;;;;;;;;;;;13.80;62.70;;;;;;4993468;28;89093;-41
2023/05/02 08:37:22;;;;;;;;;;;13.80;62.70;;;;;;4991364;28;88091;-41
2023/05/02 08:39:47;;;;;;;;;;;13.80;62.70;;;;;;4992404;28;87093;-40
2023/05/02 08:42:13;;;;;;;;;;;13.80;62.80;;;;;;4995436;28;87613;-40
2023/05/02 08:44:38;;;;;;;;;;;13.80;62.80;;;;;;4991036;28;86976;-40
2023/05/02 08:47:05;;;;;;;;;;;13.80;62.70;;;;;;4994069;28;87318;-39
2023/05/02 08:49:32;;;;;;;;;;;13.90;62.70;;;;;;4990357;28;88061;-40
2023/05/02 08:52:01;;;;;;;;;;;13.90;62.80;;;;;;4993401;28;86387;-39
2023/05/02 08:54:26;;;;;;;;;;;13.90;62.70;;;;;;4992512;28;88289;-39
2023/05/02 08:56:55;;;;;;;;;;;13.90;62.70;;;;;;4990709;28;87197;-41
2023/05/02 08:59:20;;;;;;;;;;;13.90;62.70;;;;;;4993234;28;88257;-40
2023/05/02 09:01:48;;;;;;;;;;;14.00;62.70;;;;;;4991070;28;88261;-39
2023/05/02 09:04:14;;;;;;;;;;;14.00;62.70;;;;;;4994695;28;88175;-41
2023/05/02 09:06:39;;;;;;;;;;;14.00;63.30;;;;;;4994579;28;88881;-39
2023/05/02 09:09:05;;;;;;;;;;;14.00;62.70;;;;;;4993925;28;89541;-41
2023/05/02 09:11:31;;;;;;;;;;;14.00;62.70;;;;;;4997107;28;87167;-39
2023/05/02 09:14:02;;;;;;;;;;;14.00;62.70;;;;;;4993578;28;87933;-39
2023/05/02 09:16:28;;;;;;;;;;;14.10;62.70;;;;;;4995541;28;88516;-42
2023/05/02 09:18:54;;;;;;;;;;;14.10;62.80;;;;;;4995417;28;87304;-39
2023/05/02 09:21:21;;;;;;;;;;;14.10;62.70;;;;;;4992727;28;90733;-40
2023/05/02 09:24:00;;;;;;;;;;;14.10;62.60;;;;;;4995968;28;89102;-39
2023/05/02 09:26:32;;;;;;;;;;;14.10;62.60;;;;;;4998495;28;87070;-41
2023/05/02 09:28:59;;;;;;;;;;;14.20;62.70;;;;;;4993169;28;88172;-41
2023/05/02 09:31:25;;;;;;;;;;;14.20;62.50;;;;;;4996419;28;87017;-40
2023/05/02 09:33:51;;;;;;;;;;;14.20;62.60;;;;;;4994383;28;87648;-40
2023/05/02 09:36:18;;;;;;;;;;;14.20;62.60;;;;;;4994648;28;89623;-40
2023/05/02 09:38:44;;;;;;;;;;;14.20;62.70;;;;;;4995851;28;87132;-40
2023/05/02 09:41:10;;;;;;;;;;;14.20;62.60;;;;;;4994115;28;87372;-39
2023/05/02 09:43:36;;;;;;;;;;;14.20;62.70;;;;;;4993350;28;88119;-40
2023/05/02 09:46:05;;;;;;;;;;;14.20;62.70;;;;;;4995812;28;87095;-40
2023/05/02 09:48:32;;;;;;;;;;;14.20;62.70;;;;;;4997266;28;87969;-41
2023/05/02 09:50:57;;;;;;;;;;;14.20;62.80;;;;;;4994159;28;87144;-41
2023/05/02 09:53:27;;;;;;;;;;;14.20;62.80;;;;;;4996516;28;86977;-40
2023/05/02 09:56:00;;;;;;;;;;;14.20;62.70;;;;;;4993062;28;89159;-40
2023/05/02 09:58:25;;;;;;;;;;;14.20;62.80;;;;;;4994196;28;87171;-39
2023/05/02 10:00:51;;;;;;;;;;;14.30;62.80;;;;;;4995718;28;87467;-41
2023/05/02 10:03:17;;;;;;;;;;;14.30;63.60;;;;;;4992827;28;87078;-41
2023/05/02 10:05:43;;;;;;;;;;;14.30;62.90;;;;;;4993493;28;86343;-40
2023/05/02 10:08:10;;;;;;;;;;;14.30;62.90;;;;;;4995518;28;87040;-40
2023/05/02 10:10:36;;;;;;;;;;;14.30;62.80;;;;;;4997035;28;89273;-41
2023/05/02 10:13:02;;;;;;;;;;;14.40;62.80;;;;;;4993025;28;88784;-40
2023/05/02 10:15:30;;;;;;;;;;;14.40;62.80;;;;;;4995018;28;88164;-39
2023/05/02 10:17:57;;;;;;;;;;;14.50;62.80;;;;;;4992665;28;87174;-40
2023/05/02 10:20:25;;;;;;;;;;;14.50;62.80;;;;;;4995370;28;87355;-41
2023/05/02 10:22:51;;;;;;;;;;;14.50;62.80;;;;;;4993935;28;89469;-40
2023/05/02 10:25:17;;;;;;;;;;;14.50;62.80;;;;;;4993925;28;86973;-41
2023/05/02 10:27:43;;;;;;;;;;;14.50;62.70;;;;;;4995884;28;87449;-39
2023/05/02 10:30:09;;;;;;;;;;;14.50;62.70;;;;;;4992993;28;86757;-43
2023/05/02 10:32:35;;;;;;;;;;;14.60;62.70;;;;;;4998531;28;87132;-41
2023/05/02 10:35:04;;;;;;;;;;;14.60;62.70;;;;;;4993395;28;89474;-39
2023/05/02 10:37:32;;;;;;;;;;;14.60;62.80;;;;;;4993212;28;88027;-40
2023/05/02 10:39:59;;;;;;;;;;;14.60;62.80;;;;;;4995531;28;89951;-40
2023/05/02 10:42:25;;;;;;;;;;;14.70;62.70;;;;;;4991769;28;89186;-40
2023/05/02 10:44:50;;;;;;;;;;;14.70;62.90;;;;;;4994983;28;87365;-41
2023/05/02 10:47:20;;;;;;;;;;;14.70;62.80;;;;;;4993798;28;87746;-40
2023/05/02 10:49:50;;;;;;;;;;;14.70;62.80;;;;;;4992901;28;88255;-40
2023/05/02 10:52:24;;;;;;;;;;;14.80;62.90;;;;;;4998547;28;87187;-41
2023/05/02 10:54:50;;;;;;;;;;;14.80;63.10;;;;;;4994226;28;86456;-41
2023/05/02 10:57:16;;;;;;;;;;;14.80;63.10;;;;;;4993442;28;87112;-40
2023/05/02 10:59:41;;;;;;;;;;;14.80;63.00;;;;;;4995319;28;87436;-41
2023/05/02 11:02:23;;;;;;;;;;;14.80;63.10;;;;;;4991094;28;89965;-39
2023/05/02 11:04:59;;;;;;;;;;;14.80;63.00;;;;;;4992699;28;87151;-40
2023/05/02 11:07:25;;;;;;;;;;;14.90;63.70;;;;;;4992589;28;88773;-39
2023/05/02 11:09:50;;;;;;;;;;;14.90;63.20;;;;;;4993875;28;87102;-39
2023/05/02 11:12:36;;;;;;;;;;;14.90;63.10;;;;;;4993821;28;87521;-40
2023/05/02 11:15:02;;;;;;;;;;;14.90;63.10;;;;;;4996921;28;87380;-40
2023/05/02 11:17:27;;;;;;;;;;;14.90;62.90;;;;;;4992938;28;87151;-40
2023/05/02 11:19:56;;;;;;;;;;;15.00;62.90;;;;;;4994671;28;86979;-40
2023/05/02 11:22:23;;;;;;;;;;;15.00;63.00;;;;;;4991415;28;87385;-41
2023/05/02 11:24:49;;;;;;;;;;;15.00;62.90;;;;;;4994454;28;87128;-41
2023/05/02 11:29:59;;;;;;;;;;;15.10;62.90;;;;;;4990666;28;88010;-39
2023/05/02 11:32:48;;;;;;;;;;;15.10;62.90;;;;;;4993767;28;87108;-40
2023/05/02 11:35:18;;;;;;;;;;;15.10;62.90;;;;;;4992520;28;87303;-41
2023/05/02 11:37:52;;;;;;;;;;;15.20;62.90;;;;;;4995293;28;87999;-39
2023/05/02 11:40:18;;;;;;;;;;;15.20;62.90;;;;;;4991793;28;87210;-41
2023/05/02 11:42:44;;;;;;;;;;;15.20;62.80;;;;;;4993672;28;89269;-41
2023/05/02 11:45:09;;;;;;;;;;;15.30;62.90;;;;;;4993335;28;86392;-41
2023/05/02 11:47:35;;;;;;;;;;;15.30;62.90;;;;;;4992565;28;88705;-40
2023/05/02 11:50:03;;;;;;;;;;;15.30;62.90;;;;;;4994043;28;87168;-40
2023/05/02 11:52:29;;;;;;;;;;;15.30;62.80;;;;;;4990557;28;88259;-40
2023/05/02 11:54:55;;;;;;;;;;;15.30;62.80;;;;;;4994193;28;88371;-40
2023/05/02 11:57:21;;;;;;;;;;;15.40;62.60;;;;;;4991983;28;89337;-40
2023/05/02 11:59:54;;;;;;;;;;;15.40;62.70;;;;;;4995573;28;87150;-40
2023/05/02 12:02:33;;;;;;;;;;;15.40;62.60;;;;;;4994271;28;87789;-39
2023/05/02 12:04:59;;;;;;;;;;;15.40;62.60;;;;;;4993448;28;87462;-41
2023/05/02 12:07:37;;;;;;;;;;;15.40;62.50;;;;;;4991603;28;89100;-40
2023/05/02 12:10:04;;;;;;;;;;;15.40;62.60;;;;;;4992091;28;88653;-40
2023/05/02 12:12:30;;;;;;;;;;;15.50;62.60;;;;;;4992075;28;87178;-40
2023/05/02 12:14:55;;;;;;;;;;;15.50;62.60;;;;;;4993361;28;88446;-40
2023/05/02 12:17:21;;;;;;;;;;;15.50;62.60;;;;;;4989773;28;90033;-41
2023/05/02 12:19:47;;;;;;;;;;;15.50;62.60;;;;;;4994619;28;87823;-41
2023/05/02 12:22:13;;;;;;;;;;;15.50;62.40;;;;;;4994249;28;88027;-41
2023/05/02 12:24:40;;;;;;;;;;;15.60;62.50;;;;;;4992323;28;87083;-40
2023/05/02 12:27:15;;;;;;;;;;;15.60;62.50;;;;;;4991875;28;88691;-40
2023/05/02 12:29:42;;;;;;;;;;;15.60;62.30;;;;;;4990346;28;88292;-40
2023/05/02 12:32:08;;;;;;;;;;;15.60;62.20;;;;;;4993678;28;87144;-41
2023/05/02 12:34:34;;;;;;;;;;;15.70;62.20;;;;;;4992250;28;88505;-40
2023/05/02 12:36:59;;;;;;;;;;;15.70;62.20;;;;;;4991720;28;88061;-40
2023/05/02 12:39:34;;;;;;;;;;;15.70;62.20;;;;;;4993131;28;87219;-40
2023/05/02 12:42:07;;;;;;;;;;;15.80;62.20;;;;;;4990841;28;87978;-40
2023/05/02 12:44:37;;;;;;;;;;;15.80;62.10;;;;;;4993604;28;87934;-41
2023/05/02 12:47:03;;;;;;;;;;;15.80;62.00;;;;;;4993869;28;87403;-41
2023/05/02 12:49:28;;;;;;;;;;;15.80;62.00;;;;;;4990519;28;88114;-40
2023/05/02 12:51:57;;;;;;;;;;;15.80;61.90;;;;;;4993255;28;87701;-39
2023/05/02 12:54:24;;;;;;;;;;;15.90;62.00;;;;;;4992350;28;87492;-39
2023/05/02 12:56:51;;;;;;;;;;;15.90;61.90;;;;;;4990874;28;88118;-41
2023/05/02 12:59:29;;;;;;;;;;;15.90;61.90;;;;;;4994049;28;86445;-40
2023/05/02 13:01:55;;;;;;;;;;;15.90;61.60;;;;;;4992571;28;86958;-41
2023/05/02 13:04:20;;;;;;;;;;;15.90;61.70;;;;;;4993827;28;87869;-40
2023/05/02 13:06:46;;;;;;;;;;;16.00;61.70;;;;;;4992618;28;88967;-40
2023/05/02 13:09:11;;;;;;;;;;;16.00;61.80;;;;;;4989980;28;87958;-39
2023/05/02 13:11:38;;;;;;;;;;;16.00;61.70;;;;;;4993182;28;87712;-41
2023/05/02 13:14:04;;;;;;;;;;;16.10;61.50;;;;;;4990785;28;87440;-40
2023/05/02 13:16:30;;;;;;;;;;;16.10;61.40;;;;;;4991091;28;88044;-41
2023/05/02 13:18:55;;;;;;;;;;;16.10;61.50;;;;;;4993006;28;87714;-39
2023/05/02 13:21:21;;;;;;;;;;;16.10;61.40;;;;;;4990106;28;87260;-41
2023/05/02 13:23:49;;;;;;;;;;;16.20;61.30;;;;;;4993535;28;87436;-41
2023/05/02 13:26:15;;;;;;;;;;;16.20;60.80;;;;;;4994078;28;87100;-41
2023/05/02 13:28:40;;;;;;;;;;;16.20;61.30;;;;;;4991495;28;89393;-40
2023/05/02 13:31:06;;;;;;;;;;;16.20;61.40;;;;;;4991590;28;87956;-41
2023/05/02 13:33:32;;;;;;;;;;;16.20;61.30;;;;;;4990836;28;88912;-41
2023/05/02 13:35:57;;;;;;;;;;;16.20;61.10;;;;;;4993073;28;88068;-41
2023/05/02 13:38:23;;;;;;;;;;;16.20;60.80;;;;;;4989792;28;87130;-41
2023/05/02 13:40:49;;;;;;;;;;;16.30;61.20;;;;;;4992857;28;87834;-39
2023/05/02 13:43:14;;;;;;;;;;;16.30;61.20;;;;;;4990937;28;87878;-41
2023/05/02 13:45:40;;;;;;;;;;;16.30;61.10;;;;;;4991687;28;87127;-41
2023/05/02 13:48:05;;;;;;;;;;;16.30;61.10;;;;;;4995440;28;87421;-39
2023/05/02 13:50:36;;;;;;;;;;;16.30;61.10;;;;;;4990179;28;87123;-41
2023/05/02 13:53:02;;;;;;;;;;;16.40;61.10;;;;;;4992973;28;87634;-40
2023/05/02 13:55:27;;;;;;;;;;;16.40;61.20;;;;;;4994537;28;88922;-39
2023/05/02 13:57:53;;;;;;;;;;;16.40;61.00;;;;;;4995179;28;87225;-41
2023/05/02 14:00:19;;;;;;;;;;;16.50;61.00;;;;;;4994415;28;87107;-41
2023/05/02 14:02:47;;;;;;;;;;;16.50;60.80;;;;;;4995931;28;89003;-39
2023/05/02 14:05:12;;;;;;;;;;;16.50;61.10;;;;;;4992990;28;87127;-40
2023/05/02 14:07:38;;;;;;;;;;;16.60;61.40;;;;;;4995780;28;87494;-41
2023/05/02 14:10:04;;;;;;;;;;;16.60;61.30;;;;;;4996834;28;88158;-41
2023/05/02 14:12:31;;;;;;;;;;;16.60;61.40;;;;;;4994520;28;87264;-41
2023/05/02 14:14:56;;;;;;;;;;;16.60;61.40;;;;;;4994543;28;88026;-41
2023/05/02 14:17:24;;;;;;;;;;;16.70;61.40;;;;;;4992589;28;87115;-42